createdAt,value
2018-09-08T00:00:23.204Z,17.20
2018-09-08T00:01:23.115Z,17.20
2018-09-08T00:02:23.023Z,16.20
2018-09-08T00:03:22.960Z,15.70
2018-09-08T00:04:22.834Z,17.30
2018-09-08T00:05:22.740Z,17.10
2018-09-08T00:06:22.647Z,17.60
2018-09-08T00:07:22.562Z,17.30
2018-09-08T00:08:22.481Z,16.10
2018-09-08T00:09:22.371Z,16.40
2018-09-08T00:10:22.280Z,16.60
2018-09-08T00:11:22.185Z,15.90
2018-09-08T00:12:22.095Z,16.40
2018-09-08T00:13:22.036Z,16.90
2018-09-08T00:14:21.917Z,16.50
2018-09-08T00:15:21.812Z,16.40
2018-09-08T00:16:21.719Z,14.80
2018-09-08T00:17:21.632Z,16.10
2018-09-08T00:18:21.555Z,15.30
2018-09-08T00:19:21.443Z,16.00
2018-09-08T00:20:21.348Z,17.10
2018-09-08T00:21:21.259Z,16.30
2018-09-08T00:22:21.171Z,16.90
2018-09-08T00:23:21.101Z,15.50
2018-09-08T00:24:20.982Z,17.10
2018-09-08T00:25:20.888Z,17.00
2018-09-08T00:26:20.795Z,17.10
2018-09-08T00:27:20.703Z,17.70
2018-09-08T00:28:20.624Z,17.90
2018-09-08T00:29:20.519Z,17.50
2018-09-08T00:30:20.424Z,18.10
2018-09-08T00:31:20.335Z,18.00
2018-09-08T00:32:20.242Z,18.90
2018-09-08T00:33:20.171Z,18.20
2018-09-08T00:34:20.059Z,19.70
2018-09-08T00:35:19.962Z,18.70
2018-09-08T00:36:19.870Z,19.20
2018-09-08T00:37:19.776Z,18.90
2018-09-08T00:38:19.705Z,18.40
2018-09-08T00:39:19.591Z,19.40
2018-09-08T00:40:19.501Z,19.20
2018-09-08T00:41:19.409Z,18.70
2018-09-08T00:42:19.422Z,18.40
2018-09-08T00:43:19.299Z,18.60
2018-09-08T00:44:19.129Z,18.80
2018-09-08T00:45:19.038Z,19.70
2018-09-08T00:46:18.945Z,19.30
2018-09-08T00:47:18.851Z,20.00
2018-09-08T00:48:18.777Z,19.30
2018-09-08T00:49:18.770Z,20.40
2018-09-08T00:50:18.578Z,20.90
2018-09-08T00:51:18.487Z,20.90
2018-09-08T00:52:18.391Z,20.20
2018-09-08T00:53:18.316Z,20.50
2018-09-08T00:54:18.209Z,20.00
2018-09-08T00:55:18.115Z,20.00
2018-09-08T00:56:18.156Z,20.10
2018-09-08T00:57:17.929Z,20.20
2018-09-08T00:58:17.854Z,19.80
2018-09-08T00:59:17.743Z,20.70
2018-09-08T01:00:17.653Z,20.60
2018-09-08T01:01:17.558Z,21.00
2018-09-08T01:02:17.467Z,20.70
2018-09-08T01:03:17.495Z,20.70
2018-09-08T01:04:17.282Z,20.60
2018-09-08T01:05:17.189Z,21.10
2018-09-08T01:06:17.099Z,20.40
2018-09-08T01:07:17.009Z,19.50
2018-09-08T01:08:16.928Z,18.90
2018-09-08T01:09:16.818Z,18.30
2018-09-08T01:10:16.832Z,17.80
2018-09-08T01:11:16.635Z,17.20
2018-09-08T01:12:16.542Z,16.20
2018-09-08T01:13:16.467Z,16.30
2018-09-08T01:14:16.361Z,16.80
2018-09-08T01:15:16.282Z,16.00
2018-09-08T01:16:16.175Z,17.00
2018-09-08T01:17:16.182Z,15.70
2018-09-08T01:18:16.009Z,17.90
2018-09-08T01:19:15.895Z,17.10
2018-09-08T01:20:15.808Z,17.00
2018-09-08T01:21:15.710Z,16.90
2018-09-08T01:22:15.619Z,18.50
2018-09-08T01:23:15.542Z,18.50
2018-09-08T01:24:15.536Z,18.20
2018-09-08T01:25:15.341Z,18.40
2018-09-08T01:26:15.246Z,19.90
2018-09-08T01:27:15.161Z,19.80
2018-09-08T01:28:15.076Z,19.90
2018-09-08T01:29:14.972Z,20.90
2018-09-08T01:30:14.880Z,20.10
2018-09-08T01:31:14.890Z,21.10
2018-09-08T01:32:14.695Z,19.80
2018-09-08T01:33:14.619Z,20.80
2018-09-08T01:34:14.510Z,21.00
2018-09-08T01:35:14.418Z,20.50
2018-09-08T01:36:14.322Z,20.80
2018-09-08T01:37:14.228Z,21.10
2018-09-08T01:38:14.261Z,21.00
2018-09-08T01:39:14.046Z,22.90
2018-09-08T01:40:13.956Z,22.20
2018-09-08T01:41:13.860Z,22.20
2018-09-08T01:42:13.767Z,21.30
2018-09-08T01:43:13.680Z,23.50
2018-09-08T01:44:13.700Z,22.40
2018-09-08T01:45:13.496Z,23.20
2018-09-08T01:46:13.396Z,22.60
2018-09-08T01:47:13.305Z,23.70
2018-09-08T01:48:13.230Z,23.00
2018-09-08T01:49:13.120Z,24.40
2018-09-08T01:50:13.031Z,23.20
2018-09-08T01:51:13.038Z,24.00
2018-09-08T01:52:12.841Z,24.70
2018-09-08T01:53:12.753Z,23.60
2018-09-08T01:54:12.675Z,24.10
2018-09-08T01:55:12.568Z,23.30
2018-09-08T01:56:12.487Z,23.50
2018-09-08T01:57:12.379Z,23.40
2018-09-08T01:58:12.290Z,24.70
2018-09-08T01:59:12.211Z,24.30
2018-09-08T02:00:12.104Z,24.40
2018-09-08T02:01:12.014Z,26.10
2018-09-08T02:02:11.921Z,24.20
2018-09-08T02:03:11.826Z,24.70
2018-09-08T02:04:11.750Z,24.40
2018-09-08T02:05:11.641Z,25.00
2018-09-08T02:06:11.547Z,24.60
2018-09-08T02:07:11.457Z,25.20
2018-09-08T02:08:11.363Z,24.60
2018-09-08T02:09:11.287Z,24.90
2018-09-08T02:10:11.180Z,24.60
2018-09-08T02:11:11.083Z,25.30
2018-09-08T02:12:10.993Z,24.40
2018-09-08T02:13:10.907Z,24.10
2018-09-08T02:14:10.823Z,24.20
2018-09-08T02:15:10.715Z,24.40
2018-09-08T02:16:10.636Z,25.60
2018-09-08T02:17:10.531Z,24.60
2018-09-08T02:18:10.443Z,24.20
2018-09-08T02:19:10.361Z,24.30
2018-09-08T02:20:10.253Z,23.40
2018-09-08T02:21:10.159Z,23.00
2018-09-08T02:22:10.064Z,23.00
2018-09-08T02:23:09.976Z,23.00
2018-09-08T02:24:09.903Z,23.00
2018-09-08T02:25:09.788Z,23.70
2018-09-08T02:26:09.700Z,22.50
2018-09-08T02:27:09.604Z,22.20
2018-09-08T02:28:09.511Z,22.40
2018-09-08T02:29:09.439Z,22.20
2018-09-08T02:30:09.330Z,23.20
2018-09-08T02:31:09.242Z,23.90
2018-09-08T02:32:09.140Z,24.30
2018-09-08T02:33:09.053Z,23.90
2018-09-08T02:34:08.978Z,23.00
2018-09-08T02:35:08.864Z,23.50
2018-09-08T02:36:08.774Z,24.20
2018-09-08T02:37:08.679Z,23.60
2018-09-08T02:38:08.592Z,23.60
2018-09-08T02:39:08.511Z,24.00
2018-09-08T02:40:08.399Z,25.00
2018-09-08T02:41:08.315Z,25.20
2018-09-08T02:42:08.216Z,25.30
2018-09-08T02:43:08.122Z,26.80
2018-09-08T02:44:08.050Z,25.30
2018-09-08T02:45:07.941Z,24.90
2018-09-08T02:46:07.846Z,25.50
2018-09-08T02:47:07.756Z,27.00
2018-09-08T02:48:07.662Z,27.00
2018-09-08T02:49:07.583Z,27.00
2018-09-08T02:50:07.473Z,27.30
2018-09-08T02:51:07.386Z,27.60
2018-09-08T02:52:07.288Z,27.40
2018-09-08T02:53:07.199Z,26.20
2018-09-08T02:54:07.120Z,27.00
2018-09-08T02:55:07.011Z,26.00
2018-09-08T02:56:06.915Z,26.90
2018-09-08T02:57:06.823Z,26.80
2018-09-08T02:58:06.731Z,26.20
2018-09-08T02:59:06.657Z,26.00
2018-09-08T03:00:06.547Z,26.90
2018-09-08T03:01:06.453Z,25.80
2018-09-08T03:02:06.361Z,25.90
2018-09-08T03:03:06.269Z,25.40
2018-09-08T03:04:06.192Z,26.30
2018-09-08T03:05:06.082Z,26.00
2018-09-08T03:06:05.991Z,24.90
2018-09-08T03:07:05.895Z,25.70
2018-09-08T03:08:05.805Z,26.40
2018-09-08T03:09:05.728Z,25.50
2018-09-08T03:10:05.621Z,25.30
2018-09-08T03:11:05.527Z,24.40
2018-09-08T03:12:05.430Z,25.30
2018-09-08T03:13:05.341Z,26.10
2018-09-08T03:14:05.261Z,25.20
2018-09-08T03:15:05.255Z,24.80
2018-09-08T03:16:05.058Z,25.40
2018-09-08T03:17:04.970Z,24.50
2018-09-08T03:18:04.874Z,25.30
2018-09-08T03:19:04.799Z,26.70
2018-09-08T03:20:04.692Z,24.00
2018-09-08T03:21:04.596Z,25.20
2018-09-08T03:22:04.505Z,24.50
2018-09-08T03:23:04.410Z,24.70
2018-09-08T03:24:04.336Z,24.30
2018-09-08T03:25:04.228Z,24.70
2018-09-08T03:26:04.134Z,24.90
2018-09-08T03:27:04.040Z,24.80
2018-09-08T03:28:03.946Z,24.10
2018-09-08T03:29:03.972Z,24.10
2018-09-08T03:30:03.762Z,24.30
2018-09-08T03:31:03.672Z,25.10
2018-09-08T03:32:03.574Z,24.10
2018-09-08T03:33:03.486Z,23.80
2018-09-08T03:34:03.409Z,23.70
2018-09-08T03:35:03.297Z,23.70
2018-09-08T03:36:03.324Z,23.80
2018-09-08T03:37:03.115Z,23.50
2018-09-08T03:38:03.018Z,24.20
2018-09-08T03:39:02.928Z,23.20
2018-09-08T03:40:02.850Z,23.20
2018-09-08T03:41:02.743Z,23.40
2018-09-08T03:42:02.652Z,23.40
2018-09-08T03:43:02.659Z,22.90
2018-09-08T03:44:02.466Z,23.30
2018-09-08T03:45:02.400Z,23.60
2018-09-08T03:46:02.280Z,23.30
2018-09-08T03:47:02.201Z,22.70
2018-09-08T03:48:02.090Z,23.60
2018-09-08T03:49:02.002Z,22.90
2018-09-08T03:50:02.027Z,23.90
2018-09-08T03:51:01.812Z,22.50
2018-09-08T03:52:01.718Z,23.00
2018-09-08T03:53:01.648Z,22.80
2018-09-08T03:54:01.538Z,22.20
2018-09-08T03:55:01.457Z,23.00
2018-09-08T03:56:01.347Z,22.80
2018-09-08T03:57:01.373Z,23.70
2018-09-08T03:58:01.166Z,24.50
2018-09-08T03:59:01.137Z,23.20
2018-09-08T04:00:00.993Z,23.20
2018-09-08T04:01:00.882Z,23.10
2018-09-08T04:02:00.791Z,22.70
2018-09-08T04:03:00.697Z,22.90
2018-09-08T04:04:00.706Z,22.30
2018-09-08T04:05:00.535Z,21.70
2018-09-08T04:06:00.428Z,22.20
2018-09-08T04:07:00.333Z,20.70
2018-09-08T04:08:00.233Z,20.90
2018-09-08T04:09:00.141Z,21.20
2018-09-08T04:10:00.065Z,21.10
2018-09-08T04:11:00.059Z,20.60
2018-09-08T04:11:59.863Z,20.90
2018-09-08T04:12:59.771Z,19.10
2018-09-08T04:13:59.676Z,19.60
2018-09-08T04:14:59.601Z,20.50
2018-09-08T04:15:59.493Z,20.20
2018-09-08T04:16:59.397Z,18.90
2018-09-08T04:17:59.448Z,19.20
2018-09-08T04:18:59.215Z,19.30
2018-09-08T04:19:59.136Z,19.80
2018-09-08T04:20:59.029Z,20.20
2018-09-08T04:21:58.934Z,19.50
2018-09-08T04:22:58.839Z,19.20
2018-09-08T04:23:58.763Z,19.50
2018-09-08T04:24:58.671Z,18.60
2018-09-08T04:25:58.562Z,19.30
2018-09-08T04:26:58.469Z,18.90
2018-09-08T04:27:58.378Z,19.10
2018-09-08T04:28:58.285Z,19.30
2018-09-08T04:29:58.206Z,19.90
2018-09-08T04:30:58.097Z,19.10
2018-09-08T04:31:58.110Z,19.80
2018-09-08T04:32:57.911Z,19.30
2018-09-08T04:33:57.822Z,20.00
2018-09-08T04:34:57.750Z,20.10
2018-09-08T04:35:57.631Z,19.10
2018-09-08T04:36:57.539Z,19.20
2018-09-08T04:37:57.452Z,19.20
2018-09-08T04:38:57.356Z,20.00
2018-09-08T04:39:57.277Z,19.80
2018-09-08T04:40:57.179Z,19.60
2018-09-08T04:41:57.075Z,19.20
2018-09-08T04:42:56.985Z,18.60
2018-09-08T04:43:56.889Z,18.30
2018-09-08T04:44:56.813Z,19.00
2018-09-08T04:45:56.705Z,19.20
2018-09-08T04:46:56.611Z,19.40
2018-09-08T04:47:56.517Z,19.00
2018-09-08T04:48:56.424Z,19.20
2018-09-08T04:49:56.346Z,19.10
2018-09-08T04:50:56.243Z,18.70
2018-09-08T04:51:56.148Z,19.60
2018-09-08T04:52:56.358Z,20.10
2018-09-08T04:53:55.960Z,18.60
2018-09-08T04:54:55.885Z,19.50
2018-09-08T04:55:55.774Z,18.00
2018-09-08T04:56:55.682Z,18.30
2018-09-08T04:57:55.591Z,18.20
2018-09-08T04:58:55.495Z,18.70
2018-09-08T04:59:55.528Z,19.40
2018-09-08T05:00:55.311Z,18.50
2018-09-08T05:01:55.220Z,19.60
2018-09-08T05:02:55.127Z,21.10
2018-09-08T05:03:55.029Z,19.40
2018-09-08T05:04:54.955Z,19.50
2018-09-08T05:05:54.843Z,19.30
2018-09-08T05:06:54.749Z,19.30
2018-09-08T05:07:54.657Z,19.20
2018-09-08T05:08:54.581Z,21.60
2018-09-08T05:09:54.486Z,20.90
2018-09-08T05:10:54.377Z,22.00
2018-09-08T05:11:54.287Z,21.70
2018-09-08T05:12:54.189Z,22.10
2018-09-08T05:13:54.100Z,21.10
2018-09-08T05:14:54.022Z,20.50
2018-09-08T05:15:53.910Z,19.60
2018-09-08T05:16:53.816Z,18.60
2018-09-08T05:17:53.725Z,18.90
2018-09-08T05:18:53.631Z,18.20
2018-09-08T05:19:53.555Z,17.00
2018-09-08T05:20:53.445Z,18.20
2018-09-08T05:21:53.349Z,18.10
2018-09-08T05:22:53.257Z,17.80
2018-09-08T05:23:53.162Z,19.20
2018-09-08T05:24:53.072Z,18.10
2018-09-08T05:25:52.992Z,17.10
2018-09-08T05:26:52.886Z,17.90
2018-09-08T05:27:52.896Z,17.70
2018-09-08T05:28:52.697Z,17.20
2018-09-08T05:29:52.609Z,17.60
2018-09-08T05:30:52.530Z,17.10
2018-09-08T05:31:52.426Z,16.60
2018-09-08T05:32:52.325Z,16.70
2018-09-08T05:33:52.234Z,17.00
2018-09-08T05:34:52.271Z,16.90
2018-09-08T05:35:52.067Z,17.20
2018-09-08T05:36:51.965Z,16.70
2018-09-08T05:37:51.861Z,16.20
2018-09-08T05:38:51.766Z,15.90
2018-09-08T05:39:51.676Z,16.90
2018-09-08T05:40:51.599Z,16.30
2018-09-08T05:41:51.595Z,16.20
2018-09-08T05:42:51.431Z,16.00
2018-09-08T05:43:51.305Z,16.80
2018-09-08T05:44:55.869Z,15.40
2018-09-08T05:45:51.143Z,16.10
2018-09-08T05:46:51.027Z,16.20
2018-09-08T05:47:50.932Z,15.70
2018-09-08T05:48:51.018Z,16.70
2018-09-08T05:49:50.750Z,15.90
2018-09-08T05:50:50.674Z,16.20
2018-09-08T05:51:50.564Z,16.70
2018-09-08T05:52:50.477Z,16.40
2018-09-08T05:53:50.378Z,16.70
2018-09-08T05:54:50.291Z,17.10
2018-09-08T05:55:50.319Z,15.70
2018-09-08T05:56:50.105Z,15.20
2018-09-08T05:57:50.011Z,15.50
2018-09-08T05:58:49.920Z,15.60
2018-09-08T05:59:49.827Z,15.80
2018-09-08T06:00:49.750Z,15.60
2018-09-08T06:01:49.643Z,15.00
2018-09-08T06:02:49.659Z,15.80
2018-09-08T06:03:49.460Z,15.50
2018-09-08T06:04:49.370Z,15.20
2018-09-08T06:05:49.294Z,15.00
2018-09-08T06:06:49.188Z,15.10
2018-09-08T06:07:49.094Z,14.40
2018-09-08T06:08:49.002Z,13.80
2018-09-08T06:09:49.007Z,14.20
2018-09-08T06:10:48.836Z,14.30
2018-09-08T06:11:48.726Z,12.80
2018-09-08T06:12:48.637Z,13.10
2018-09-08T06:13:48.550Z,13.20
2018-09-08T06:14:48.455Z,13.60
2018-09-08T06:15:48.677Z,12.90
2018-09-08T06:16:48.370Z,12.60
2018-09-08T06:17:48.175Z,12.70
2018-09-08T06:18:48.086Z,12.80
2018-09-08T06:19:47.993Z,12.80
2018-09-08T06:20:47.917Z,13.40
2018-09-08T06:21:47.811Z,12.30
2018-09-08T06:22:47.717Z,12.30
2018-09-08T06:23:47.624Z,10.80
2018-09-08T06:24:47.539Z,11.30
2018-09-08T06:25:47.459Z,10.10
2018-09-08T06:26:47.355Z,10.30
2018-09-08T06:27:47.259Z,10.00
2018-09-08T06:28:47.215Z,9.70
2018-09-08T06:29:47.080Z,9.80
2018-09-08T06:30:47.002Z,8.60
2018-09-08T06:31:46.898Z,8.90
2018-09-08T06:32:46.805Z,8.60
2018-09-08T06:33:46.750Z,8.20
2018-09-08T06:34:46.630Z,8.00
2018-09-08T06:35:46.550Z,7.50
2018-09-08T06:36:46.443Z,8.20
2018-09-08T06:37:46.407Z,7.50
2018-09-08T06:38:46.269Z,8.00
2018-09-08T06:39:46.174Z,7.30
2018-09-08T06:40:46.102Z,7.10
2018-09-08T06:41:46.000Z,7.40
2018-09-08T06:42:45.904Z,7.10
2018-09-08T06:43:45.816Z,6.80
2018-09-08T06:44:46.757Z,7.90
2018-09-08T06:45:45.674Z,8.30
2018-09-08T06:46:45.549Z,7.80
2018-09-08T06:47:45.460Z,7.40
2018-09-08T06:48:45.373Z,7.10
2018-09-08T06:49:45.284Z,7.40
2018-09-08T06:50:45.213Z,6.90
2018-09-08T06:51:45.114Z,7.00
2018-09-08T06:52:45.022Z,7.10
2018-09-08T06:53:44.937Z,6.50
2018-09-08T06:54:44.848Z,7.10
2018-09-08T06:55:44.769Z,6.70
2018-09-08T06:56:44.668Z,6.50
2018-09-08T06:57:44.608Z,6.60
2018-09-08T06:58:44.497Z,6.80
2018-09-08T06:59:44.405Z,6.80
2018-09-08T07:00:44.348Z,6.50
2018-09-08T07:01:44.232Z,6.30
2018-09-08T07:02:44.147Z,6.10
2018-09-08T07:03:44.057Z,6.10
2018-09-08T07:04:43.970Z,6.40
2018-09-08T07:05:43.903Z,6.20
2018-09-08T07:06:43.804Z,6.50
2018-09-08T07:07:43.711Z,6.10
2018-09-08T07:08:43.626Z,6.00
2018-09-08T07:09:43.535Z,7.70
2018-09-08T07:10:43.485Z,5.70
2018-09-08T07:11:43.482Z,5.90
2018-09-08T07:12:43.280Z,5.60
2018-09-08T07:13:43.194Z,5.80
2018-09-08T07:14:43.110Z,6.60
2018-09-08T07:15:43.025Z,5.00
2018-09-08T07:16:42.952Z,6.20
2018-09-08T07:17:42.853Z,5.90
2018-09-08T07:18:42.866Z,4.80
2018-09-08T07:19:42.677Z,4.30
2018-09-08T07:20:42.594Z,4.80
2018-09-08T07:21:42.526Z,5.20
2018-09-08T07:22:42.424Z,4.40
2018-09-08T07:23:42.334Z,6.40
2018-09-08T07:24:42.252Z,5.50
2018-09-08T07:25:42.168Z,4.70
2018-09-08T07:26:42.095Z,4.80
2018-09-08T07:27:41.993Z,5.30
2018-09-08T07:28:41.909Z,4.00
2018-09-08T07:29:41.827Z,5.00
2018-09-08T07:30:41.743Z,5.20
2018-09-08T07:31:41.670Z,3.70
2018-09-08T07:32:41.681Z,5.00
2018-09-08T07:33:41.483Z,4.90
2018-09-08T07:34:41.402Z,4.90
2018-09-08T07:35:41.316Z,4.30
2018-09-08T07:36:41.248Z,6.70
2018-09-08T07:37:41.150Z,5.10
2018-09-08T07:38:41.192Z,4.10
2018-09-08T07:39:40.976Z,6.70
2018-09-08T07:40:40.894Z,6.90
2018-09-08T07:41:40.833Z,4.40
2018-09-08T07:42:40.725Z,5.30
2018-09-08T07:43:40.640Z,3.80
2018-09-08T07:44:40.554Z,4.20
2018-09-08T07:45:40.474Z,4.00
2018-09-08T07:46:40.406Z,4.90
2018-09-08T07:47:40.302Z,4.80
2018-09-08T07:48:40.220Z,5.10
2018-09-08T07:49:40.132Z,4.60
2018-09-08T07:50:40.051Z,4.30
2018-09-08T07:51:39.980Z,4.30
2018-09-08T07:52:39.879Z,4.00
2018-09-08T07:53:39.917Z,3.90
2018-09-08T07:54:39.713Z,3.70
2018-09-08T07:55:39.628Z,4.80
2018-09-08T07:56:39.562Z,4.00
2018-09-08T07:57:39.461Z,4.50
2018-09-08T07:58:39.375Z,4.40
2018-09-08T07:59:39.297Z,4.30
2018-09-08T08:00:39.205Z,3.80
2018-09-08T08:01:39.145Z,4.10
2018-09-08T08:02:39.040Z,3.80
2018-09-08T08:03:38.958Z,3.60
2018-09-08T08:04:38.875Z,3.90
2018-09-08T08:05:38.791Z,3.80
2018-09-08T08:06:38.777Z,5.50
2018-09-08T08:07:38.627Z,3.50
2018-09-08T08:08:38.539Z,3.90
2018-09-08T08:09:38.457Z,3.90
2018-09-08T08:10:38.374Z,4.00
2018-09-08T08:11:38.311Z,6.30
2018-09-08T08:12:38.211Z,4.50
2018-09-08T08:13:38.125Z,5.00
2018-09-08T08:14:38.070Z,4.10
2018-09-08T08:15:37.958Z,4.10
2018-09-08T08:16:37.891Z,4.10
2018-09-08T08:17:37.790Z,4.30
2018-09-08T08:18:37.711Z,4.00
2018-09-08T08:19:37.628Z,3.80
2018-09-08T08:20:37.539Z,4.30
2018-09-08T08:21:37.474Z,3.70
2018-09-08T08:22:37.375Z,3.50
2018-09-08T08:23:37.291Z,2.90
2018-09-08T08:24:37.213Z,3.90
2018-09-08T08:25:37.181Z,3.20
2018-09-08T08:26:37.062Z,4.20
2018-09-08T08:27:36.960Z,5.90
2018-09-08T08:28:36.875Z,3.70
2018-09-08T08:29:36.793Z,5.70
2018-09-08T08:30:36.707Z,3.70
2018-09-08T08:31:36.736Z,4.10
2018-09-08T08:32:36.567Z,4.20
2018-09-08T08:33:36.457Z,4.70
2018-09-08T08:34:36.378Z,7.00
2018-09-08T08:35:36.294Z,4.90
2018-09-08T08:36:36.225Z,4.40
2018-09-08T08:37:36.122Z,3.30
2018-09-08T08:38:36.043Z,4.90
2018-09-08T08:39:35.965Z,3.80
2018-09-08T08:40:35.877Z,4.10
2018-09-08T08:41:35.910Z,4.60
2018-09-08T08:42:35.709Z,4.10
2018-09-08T08:43:35.631Z,4.00
2018-09-08T08:44:35.543Z,4.10
2018-09-08T08:45:35.462Z,3.90
2018-09-08T08:46:35.392Z,4.60
2018-09-08T08:47:35.297Z,4.30
2018-09-08T08:48:35.312Z,4.20
2018-09-08T08:49:35.128Z,4.00
2018-09-08T08:50:35.044Z,4.00
2018-09-08T08:51:34.961Z,3.90
2018-09-08T08:52:34.975Z,3.90
2018-09-08T08:53:34.790Z,3.90
2018-09-08T08:54:34.707Z,4.00
2018-09-08T08:55:34.720Z,5.00
2018-09-08T08:56:34.549Z,4.50
2018-09-08T08:57:34.450Z,5.30
2018-09-08T08:58:34.369Z,4.20
2018-09-08T08:59:34.283Z,4.10
2018-09-08T09:00:34.198Z,3.80
2018-09-08T09:01:34.112Z,4.00
2018-09-08T09:02:34.143Z,4.40
2018-09-08T09:03:33.943Z,3.80
2018-09-08T09:04:33.855Z,4.20
2018-09-08T09:05:33.776Z,6.20
2018-09-08T09:06:33.690Z,3.90
2018-09-08T09:07:33.889Z,3.50
2018-09-08T09:08:34.074Z,3.40
2018-09-08T09:09:33.539Z,4.80
2018-09-08T09:10:33.349Z,4.20
2018-09-08T09:11:33.262Z,3.60
2018-09-08T09:12:33.543Z,5.90
2018-09-08T09:13:33.216Z,3.70
2018-09-08T09:14:33.063Z,2.80
2018-09-08T09:15:33.309Z,3.00
2018-09-08T09:16:32.937Z,3.60
2018-09-08T09:17:32.773Z,6.50
2018-09-08T09:18:33.081Z,3.50
2018-09-08T09:19:32.587Z,3.00
2018-09-08T09:20:32.499Z,2.90
2018-09-08T09:21:32.420Z,3.60
2018-09-08T09:22:32.455Z,2.50
2018-09-08T09:23:32.246Z,3.20
2018-09-08T09:24:32.544Z,4.70
2018-09-08T09:25:32.079Z,2.40
2018-09-08T09:26:32.001Z,2.90
2018-09-08T09:27:31.935Z,2.50
2018-09-08T09:28:31.831Z,2.80
2018-09-08T09:29:31.751Z,2.40
2018-09-08T09:30:31.667Z,5.60
2018-09-08T09:31:31.580Z,5.30
2018-09-08T09:32:31.521Z,2.50
2018-09-08T09:33:31.415Z,2.70
2018-09-08T09:34:31.333Z,6.00
2018-09-08T09:35:31.255Z,4.10
2018-09-08T09:36:31.172Z,2.30
2018-09-08T09:37:31.104Z,4.70
2018-09-08T09:38:31.005Z,4.10
2018-09-08T09:39:30.920Z,5.80
2018-09-08T09:40:30.839Z,2.50
2018-09-08T09:41:30.757Z,2.90
2018-09-08T09:42:30.689Z,3.10
2018-09-08T09:43:30.593Z,2.80
2018-09-08T09:44:30.510Z,2.80
2018-09-08T09:45:30.432Z,3.30
2018-09-08T09:46:30.350Z,2.20
2018-09-08T09:47:30.278Z,2.70
2018-09-08T09:48:30.185Z,2.20
2018-09-08T09:49:30.100Z,2.40
2018-09-08T09:50:30.113Z,1.70
2018-09-08T09:51:29.934Z,2.40
2018-09-08T09:52:29.873Z,3.70
2018-09-08T09:53:29.772Z,4.50
2018-09-08T09:54:29.699Z,1.60
2018-09-08T09:55:29.612Z,3.20
2018-09-08T09:56:29.527Z,2.00
2018-09-08T09:57:29.563Z,2.40
2018-09-08T09:58:29.365Z,1.90
2018-09-08T09:59:29.281Z,2.00
2018-09-08T10:00:29.203Z,1.80
2018-09-08T10:01:29.119Z,1.70
2018-09-08T10:02:29.054Z,4.00
2018-09-08T10:03:28.956Z,2.50
2018-09-08T10:04:28.976Z,5.20
2018-09-08T10:05:28.797Z,1.80
2018-09-08T10:06:28.723Z,2.60
2018-09-08T10:07:28.647Z,4.00
2018-09-08T10:08:28.550Z,2.60
2018-09-08T10:09:28.470Z,3.60
2018-09-08T10:10:28.390Z,2.30
2018-09-08T10:11:28.309Z,2.10
2018-09-08T10:12:28.247Z,2.80
2018-09-08T10:13:28.148Z,2.10
2018-09-08T10:14:28.066Z,2.20
2018-09-08T10:15:27.985Z,2.00
2018-09-08T10:16:27.903Z,3.10
2018-09-08T10:17:27.841Z,3.70
2018-09-08T10:18:27.745Z,7.30
2018-09-08T10:19:27.664Z,2.50
2018-09-08T10:20:27.584Z,2.20
2018-09-08T10:21:27.498Z,3.20
2018-09-08T10:22:27.466Z,2.90
2018-09-08T10:23:27.389Z,3.40
2018-09-08T10:24:27.258Z,2.60
2018-09-08T10:25:27.182Z,3.60
2018-09-08T10:26:27.249Z,2.20
2018-09-08T10:27:27.035Z,2.20
2018-09-08T10:28:26.933Z,2.30
2018-09-08T10:29:26.852Z,5.20
2018-09-08T10:30:26.823Z,3.70
2018-09-08T10:31:26.689Z,3.10
2018-09-08T10:32:26.622Z,1.90
2018-09-08T10:33:26.527Z,3.30
2018-09-08T10:34:26.442Z,2.10
2018-09-08T10:35:26.361Z,2.70
2018-09-08T10:36:26.278Z,1.80
2018-09-08T10:37:26.211Z,2.90
2018-09-08T10:38:26.117Z,2.60
2018-09-08T10:39:26.032Z,3.00
2018-09-08T10:40:26.053Z,2.90
2018-09-08T10:41:25.867Z,2.60
2018-09-08T10:42:25.798Z,2.80
2018-09-08T10:43:25.700Z,2.80
2018-09-08T10:44:25.638Z,2.70
2018-09-08T10:45:25.534Z,2.80
2018-09-08T10:46:25.449Z,1.90
2018-09-08T10:47:25.377Z,4.00
2018-09-08T10:48:25.278Z,2.40
2018-09-08T10:49:25.198Z,2.30
2018-09-08T10:50:25.115Z,4.10
2018-09-08T10:51:25.025Z,2.40
2018-09-08T10:52:24.944Z,2.70
2018-09-08T10:53:24.878Z,2.60
2018-09-08T10:54:24.780Z,4.50
2018-09-08T10:55:24.688Z,2.10
2018-09-08T10:56:24.608Z,2.90
2018-09-08T10:57:24.527Z,2.10
2018-09-08T10:58:24.454Z,2.40
2018-09-08T10:59:24.355Z,2.40
2018-09-08T11:00:24.272Z,2.90
2018-09-08T11:01:24.263Z,2.50
2018-09-08T11:02:24.302Z,2.10
2018-09-08T11:03:24.040Z,4.80
2018-09-08T11:04:23.939Z,2.50
2018-09-08T11:05:23.862Z,2.50
2018-09-08T11:06:23.775Z,3.10
2018-09-08T11:07:23.796Z,3.90
2018-09-08T11:08:23.624Z,2.50
2018-09-08T11:09:23.528Z,2.40
2018-09-08T11:10:23.447Z,2.60
2018-09-08T11:11:23.362Z,3.10
2018-09-08T11:12:23.285Z,2.50
2018-09-08T11:13:23.213Z,3.30
2018-09-08T11:14:23.226Z,3.20
2018-09-08T11:15:23.036Z,2.40
2018-09-08T11:16:22.953Z,2.70
2018-09-08T11:17:22.871Z,2.20
2018-09-08T11:18:22.809Z,4.10
2018-09-08T11:19:22.706Z,3.50
2018-09-08T11:20:22.626Z,2.30
2018-09-08T11:21:22.658Z,2.80
2018-09-08T11:22:22.464Z,2.40
2018-09-08T11:23:22.397Z,2.70
2018-09-08T11:24:22.303Z,2.50
2018-09-08T11:25:22.221Z,2.30
2018-09-08T11:26:22.139Z,8.50
2018-09-08T11:27:22.054Z,4.30
2018-09-08T11:28:22.095Z,5.40
2018-09-08T11:29:21.889Z,3.50
2018-09-08T11:30:21.810Z,2.50
2018-09-08T11:31:21.727Z,2.60
2018-09-08T11:32:21.664Z,2.70
2018-09-08T11:33:21.577Z,3.40
2018-09-08T11:34:21.490Z,2.40
2018-09-08T11:35:21.499Z,2.30
2018-09-08T11:36:21.323Z,2.90
2018-09-08T11:37:21.244Z,2.40
2018-09-08T11:38:21.245Z,2.30
2018-09-08T11:39:21.080Z,2.40
2018-09-08T11:40:20.998Z,3.60
2018-09-08T11:41:20.912Z,2.00
2018-09-08T11:42:20.937Z,3.10
2018-09-08T11:43:20.769Z,2.30
2018-09-08T11:44:20.673Z,2.40
2018-09-08T11:45:20.591Z,2.50
2018-09-08T11:46:20.509Z,2.20
2018-09-08T11:47:20.428Z,2.30
2018-09-08T11:48:20.362Z,2.90
2018-09-08T11:49:20.367Z,2.10
2018-09-08T11:50:20.181Z,2.10
2018-09-08T11:51:20.100Z,2.40
2018-09-08T11:52:20.018Z,2.60
2018-09-08T11:53:19.951Z,2.10
2018-09-08T11:54:19.853Z,3.10
2018-09-08T11:55:19.770Z,2.20
2018-09-08T11:56:19.688Z,2.90
2018-09-08T11:57:19.608Z,2.80
2018-09-08T11:58:19.541Z,2.50
2018-09-08T11:59:19.439Z,3.90
2018-09-08T12:00:19.359Z,4.20
2018-09-08T12:01:19.278Z,2.10
2018-09-08T12:02:19.297Z,9.20
2018-09-08T12:03:19.127Z,2.40
2018-09-08T12:04:19.029Z,2.40
2018-09-08T12:05:18.942Z,3.90
2018-09-08T12:06:18.914Z,2.50
2018-09-08T12:07:18.776Z,2.20
2018-09-08T12:08:18.708Z,2.10
2018-09-08T12:09:18.612Z,2.90
2018-09-08T12:10:18.527Z,2.60
2018-09-08T12:11:18.442Z,2.30
2018-09-08T12:12:18.360Z,2.50
2018-09-08T12:13:18.293Z,2.70
2018-09-08T12:14:18.218Z,2.40
2018-09-08T12:15:18.113Z,2.20
2018-09-08T12:16:18.031Z,2.90
2018-09-08T12:17:17.949Z,2.60
2018-09-08T12:18:17.881Z,2.30
2018-09-08T12:19:17.782Z,2.30
2018-09-08T12:20:17.703Z,2.20
2018-09-08T12:21:17.620Z,2.30
2018-09-08T12:22:17.616Z,3.10
2018-09-08T12:23:17.472Z,2.60
2018-09-08T12:24:17.374Z,2.30
2018-09-08T12:25:17.298Z,2.10
2018-09-08T12:26:17.210Z,2.60
2018-09-08T12:27:17.129Z,2.80
2018-09-08T12:28:17.064Z,3.00
2018-09-08T12:29:16.973Z,2.90
2018-09-08T12:30:16.883Z,3.40
2018-09-08T12:31:16.800Z,2.50
2018-09-08T12:32:16.716Z,2.50
2018-09-08T12:33:16.656Z,2.00
2018-09-08T12:34:16.555Z,2.50
2018-09-08T12:35:16.466Z,2.60
2018-09-08T12:36:16.383Z,2.60
2018-09-08T12:37:16.323Z,2.90
2018-09-08T12:38:16.224Z,2.60
2018-09-08T12:39:16.156Z,3.30
2018-09-08T12:40:16.051Z,2.70
2018-09-08T12:41:15.968Z,2.20
2018-09-08T12:42:15.884Z,2.50
2018-09-08T12:43:15.805Z,3.00
2018-09-08T12:44:15.734Z,3.00
2018-09-08T12:45:15.633Z,2.30
2018-09-08T12:46:15.552Z,2.40
2018-09-08T12:47:15.464Z,2.30
2018-09-08T12:48:15.386Z,2.60
2018-09-08T12:49:15.320Z,2.20
2018-09-08T12:50:15.219Z,2.30
2018-09-08T12:51:15.132Z,2.70
2018-09-08T12:52:15.050Z,2.90
2018-09-08T12:53:14.989Z,2.60
2018-09-08T12:54:14.901Z,2.10
2018-09-08T12:55:14.799Z,2.70
2018-09-08T12:56:14.713Z,2.00
2018-09-08T12:57:14.633Z,2.40
2018-09-08T12:58:14.654Z,2.30
2018-09-08T12:59:14.576Z,2.20
2018-09-08T13:00:14.384Z,3.30
2018-09-08T13:01:14.301Z,2.30
2018-09-08T13:02:14.215Z,2.30
2018-09-08T13:03:14.133Z,2.40
2018-09-08T13:04:14.080Z,2.30